createdAt,value
2023-04-02T00:00:10.289Z,13.80
2023-04-02T00:02:36.919Z,13.80
2023-04-02T00:05:03.464Z,13.70
2023-04-02T00:07:29.938Z,13.70
2023-04-02T00:09:56.416Z,13.70
2023-04-02T00:12:22.882Z,13.70
2023-04-02T00:14:49.375Z,13.60
2023-04-02T00:17:16.472Z,13.70
2023-04-02T00:19:42.943Z,13.70
2023-04-02T00:22:09.425Z,13.70
2023-04-02T00:24:35.909Z,13.80
2023-04-02T00:27:02.397Z,13.80
2023-04-02T00:29:28.900Z,13.70
2023-04-02T00:31:55.474Z,13.70
2023-04-02T00:34:22.020Z,13.80
2023-04-02T00:36:48.525Z,13.80
2023-04-02T00:39:15.005Z,13.70
2023-04-02T00:41:41.505Z,13.70
2023-04-02T00:44:07.972Z,13.70
2023-04-02T00:46:34.501Z,13.70
2023-04-02T00:49:01.002Z,13.70
2023-04-02T00:51:27.506Z,13.80
2023-04-02T00:53:53.958Z,13.70
2023-04-02T00:56:20.467Z,13.70
2023-04-02T00:58:46.885Z,13.80
2023-04-02T01:01:13.814Z,13.70
2023-04-02T01:03:40.475Z,13.70
2023-04-02T01:06:07.037Z,13.70
2023-04-02T01:08:33.513Z,13.70
2023-04-02T01:10:59.993Z,13.80
2023-04-02T01:13:26.440Z,13.70
2023-04-02T01:15:53.002Z,13.70
2023-04-02T01:18:19.500Z,13.70
2023-04-02T01:20:45.969Z,13.70
2023-04-02T01:23:12.443Z,13.70
2023-04-02T01:25:38.995Z,13.70
2023-04-02T01:28:05.470Z,13.70
2023-04-02T01:30:31.973Z,13.70
2023-04-02T01:32:58.451Z,13.50
2023-04-02T01:35:24.938Z,13.60
2023-04-02T01:37:51.412Z,13.60
2023-04-02T01:40:17.886Z,13.60
2023-04-02T01:42:44.366Z,13.60
2023-04-02T01:45:10.845Z,13.60
2023-04-02T01:47:37.340Z,13.70
2023-04-02T01:50:03.857Z,13.70
2023-04-02T01:52:30.349Z,13.70
2023-04-02T01:54:56.829Z,13.70
2023-04-02T01:57:23.353Z,13.70
2023-04-02T01:59:49.865Z,13.70
2023-04-02T02:02:16.459Z,13.70
2023-04-02T02:04:43.030Z,13.60
2023-04-02T02:07:09.562Z,13.60
2023-04-02T02:09:36.029Z,13.60
2023-04-02T02:12:02.545Z,13.60
2023-04-02T02:14:29.042Z,13.60
2023-04-02T02:16:55.533Z,13.60
2023-04-02T02:19:22.014Z,13.60
2023-04-02T02:21:48.512Z,13.60
2023-04-02T02:24:14.980Z,13.60
2023-04-02T02:26:41.486Z,13.60
2023-04-02T02:29:07.973Z,13.70
2023-04-02T02:31:34.479Z,13.60
2023-04-02T02:34:00.974Z,13.60
2023-04-02T02:36:27.478Z,13.60
2023-04-02T02:38:54.601Z,13.70
2023-04-02T02:41:21.196Z,13.60
2023-04-02T02:43:47.673Z,13.60
2023-04-02T02:46:14.204Z,13.60
2023-04-02T02:48:40.693Z,13.60
2023-04-02T02:51:07.174Z,13.60
2023-04-02T02:53:33.637Z,13.60
2023-04-02T02:56:00.133Z,13.60
2023-04-02T02:58:26.625Z,13.60
2023-04-02T03:00:53.104Z,13.60
2023-04-02T03:03:19.749Z,13.70
2023-04-02T03:05:46.279Z,13.70
2023-04-02T03:08:12.773Z,13.70
2023-04-02T03:10:39.262Z,13.70
2023-04-02T03:13:05.757Z,13.60
2023-04-02T03:15:32.239Z,13.60
2023-04-02T03:17:58.836Z,13.60
2023-04-02T03:20:25.320Z,13.60
2023-04-02T03:22:51.812Z,13.60
2023-04-02T03:25:18.267Z,13.60
2023-04-02T03:27:44.768Z,13.60
2023-04-02T03:30:11.249Z,13.60
2023-04-02T03:32:37.757Z,13.60
2023-04-02T03:35:04.256Z,13.60
2023-04-02T03:37:30.722Z,13.60
2023-04-02T03:39:57.199Z,13.50
2023-04-02T03:42:23.671Z,13.50
2023-04-02T03:44:50.137Z,13.60
2023-04-02T03:47:16.616Z,13.50
2023-04-02T03:49:43.088Z,13.50
2023-04-02T03:52:09.546Z,13.50
2023-04-02T03:54:36.037Z,13.60
2023-04-02T03:57:02.564Z,13.60
2023-04-02T03:59:29.063Z,13.50
2023-04-02T04:01:55.539Z,13.60
2023-04-02T04:04:22.104Z,13.50
2023-04-02T04:06:48.597Z,13.50
2023-04-02T04:09:15.071Z,13.50
2023-04-02T04:11:41.530Z,13.50
2023-04-02T04:14:08.035Z,13.30
2023-04-02T04:16:34.547Z,13.50
2023-04-02T04:19:01.073Z,13.60
2023-04-02T04:21:27.526Z,13.70
2023-04-02T04:23:54.013Z,13.80
2023-04-02T04:26:20.483Z,13.70
2023-04-02T04:28:46.972Z,13.90
2023-04-02T04:31:13.442Z,13.90
2023-04-02T04:33:40.023Z,14.10
2023-04-02T04:36:06.549Z,14.10
2023-04-02T04:38:33.116Z,14.20
2023-04-02T04:40:59.630Z,14.30
2023-04-02T04:43:26.107Z,14.30
2023-04-02T04:45:52.586Z,14.40
2023-04-02T04:48:19.089Z,14.50
2023-04-02T04:50:45.582Z,14.60
2023-04-02T04:53:12.044Z,14.60
2023-04-02T04:55:38.512Z,14.50
2023-04-02T04:58:05.020Z,14.60
2023-04-02T05:00:31.524Z,14.60
2023-04-02T05:02:58.011Z,14.70
2023-04-02T05:05:24.479Z,14.70
2023-04-02T05:07:50.966Z,14.70
2023-04-02T05:10:17.500Z,14.80
2023-04-02T05:12:43.953Z,14.70
2023-04-02T05:15:10.418Z,14.80
2023-04-02T05:17:36.929Z,14.80
2023-04-02T05:20:03.466Z,14.90
2023-04-02T05:22:29.944Z,14.90
2023-04-02T05:24:56.462Z,15.00
2023-04-02T05:27:22.939Z,14.80
2023-04-02T05:29:49.418Z,14.90
2023-04-02T05:32:15.877Z,14.90
2023-04-02T05:34:42.369Z,15.10
2023-04-02T05:37:08.860Z,15.00
2023-04-02T05:39:35.330Z,15.10
2023-04-02T05:42:01.807Z,15.20
2023-04-02T05:44:28.289Z,15.20
2023-04-02T05:46:54.877Z,15.20
2023-04-02T05:49:21.465Z,15.20
2023-04-02T05:51:47.934Z,15.20
2023-04-02T05:54:14.419Z,15.20
2023-04-02T05:56:40.926Z,15.40
2023-04-02T05:59:07.381Z,15.50
2023-04-02T06:01:33.862Z,15.40
2023-04-02T06:04:00.365Z,15.30
2023-04-02T06:06:26.913Z,15.30
2023-04-02T06:08:53.390Z,15.40
2023-04-02T06:11:19.862Z,15.50
2023-04-02T06:13:46.328Z,15.60
2023-04-02T06:16:12.829Z,15.40
2023-04-02T06:18:39.306Z,15.40
2023-04-02T06:21:05.767Z,15.30
2023-04-02T06:23:38.215Z,15.60
2023-04-02T06:26:04.681Z,15.60
2023-04-02T06:28:31.141Z,15.60
2023-04-02T06:30:57.672Z,15.60
2023-04-02T06:33:24.201Z,15.60
2023-04-02T06:35:50.707Z,15.70
2023-04-02T06:38:17.186Z,15.60
2023-04-02T06:40:43.683Z,15.50
2023-04-02T06:43:10.139Z,15.70
2023-04-02T06:45:36.786Z,15.50
2023-04-02T06:48:03.457Z,15.50
2023-04-02T06:50:29.972Z,15.50
2023-04-02T06:52:56.437Z,15.60
2023-04-02T06:55:22.967Z,15.60
2023-04-02T06:57:49.437Z,15.90
2023-04-02T07:00:15.916Z,15.80
2023-04-02T07:02:42.439Z,15.90
2023-04-02T07:05:09.058Z,15.90
2023-04-02T07:07:35.692Z,15.90
2023-04-02T07:10:02.144Z,15.80
2023-04-02T07:12:28.631Z,15.90
2023-04-02T07:14:55.123Z,15.90
2023-04-02T07:17:21.663Z,16.00
2023-04-02T07:19:48.204Z,15.90
2023-04-02T07:22:14.683Z,16.00
2023-04-02T07:24:41.132Z,16.00
2023-04-02T07:27:07.599Z,16.00
2023-04-02T07:29:34.088Z,16.10
2023-04-02T07:32:00.560Z,16.10
2023-04-02T07:34:27.052Z,16.20
2023-04-02T07:36:53.536Z,16.10
2023-04-02T07:39:20.003Z,16.10
2023-04-02T07:41:46.494Z,16.20
2023-04-02T07:44:12.979Z,16.10
2023-04-02T07:46:39.476Z,16.10
2023-04-02T07:49:05.961Z,16.10
2023-04-02T07:51:32.432Z,16.10
2023-04-02T07:53:58.900Z,16.20
2023-04-02T07:56:25.426Z,16.10
2023-04-02T07:58:51.901Z,16.10
2023-04-02T08:01:18.369Z,16.30
2023-04-02T08:03:44.950Z,16.30
2023-04-02T08:06:11.526Z,16.30
2023-04-02T08:08:38.018Z,16.40
2023-04-02T08:11:04.485Z,16.50
2023-04-02T08:13:30.962Z,16.50
2023-04-02T08:15:57.438Z,16.50
2023-04-02T08:18:23.894Z,16.50
2023-04-02T08:20:50.390Z,16.40
2023-04-02T08:23:16.852Z,16.30
2023-04-02T08:25:43.314Z,16.20
2023-04-02T08:28:09.805Z,16.00
2023-04-02T08:30:36.336Z,15.90
2023-04-02T08:33:02.895Z,15.70
2023-04-02T08:35:29.391Z,15.70
2023-04-02T08:37:55.898Z,15.70
2023-04-02T08:40:26.194Z,15.60
2023-04-02T08:42:52.688Z,15.60
2023-04-02T08:45:24.857Z,15.50
2023-04-02T08:47:52.097Z,15.50
2023-04-02T08:50:18.608Z,15.40
2023-04-02T08:52:45.117Z,15.40
2023-04-02T08:55:11.583Z,15.40
2023-04-02T08:57:38.055Z,15.40
2023-04-02T09:00:04.528Z,15.40
2023-04-02T09:02:31.031Z,15.30
2023-04-02T09:04:57.612Z,15.30
2023-04-02T09:07:24.132Z,15.30
2023-04-02T09:09:50.620Z,15.30
2023-04-02T09:12:17.112Z,15.20
2023-04-02T09:14:43.583Z,15.20
2023-04-02T09:17:10.034Z,15.20
2023-04-02T09:19:36.502Z,15.20
2023-04-02T09:22:02.987Z,15.20
2023-04-02T09:24:29.433Z,15.10
2023-04-02T09:26:55.924Z,15.10
2023-04-02T09:29:22.388Z,15.10
2023-04-02T09:31:50.191Z,15.10
2023-04-02T09:34:16.724Z,15.10
2023-04-02T09:36:43.178Z,15.10
2023-04-02T09:39:09.651Z,15.10
2023-04-02T09:41:37.080Z,15.10
2023-04-02T09:44:03.712Z,15.10
2023-04-02T09:46:32.177Z,15.10
2023-04-02T09:48:58.677Z,15.00
2023-04-02T09:51:25.166Z,15.00
2023-04-02T09:53:56.188Z,15.00
2023-04-02T09:56:22.668Z,15.00
2023-04-02T09:58:49.161Z,15.00
2023-04-02T10:01:15.653Z,14.90
2023-04-02T10:03:42.167Z,14.90
2023-04-02T10:06:08.652Z,14.90
2023-04-02T10:08:35.128Z,14.90
2023-04-02T10:11:01.620Z,14.90
2023-04-02T10:13:28.085Z,14.90
2023-04-02T10:15:54.534Z,14.90
2023-04-02T10:18:21.082Z,14.80
2023-04-02T10:20:51.244Z,14.90
2023-04-02T10:23:18.073Z,14.80
2023-04-02T10:25:44.562Z,14.80
2023-04-02T10:28:14.238Z,14.80
2023-04-02T10:30:40.753Z,14.80
2023-04-02T10:33:07.254Z,14.80
2023-04-02T10:35:34.158Z,14.70
2023-04-02T10:38:00.871Z,14.70
2023-04-02T10:40:27.343Z,14.80
2023-04-02T10:42:53.822Z,14.70
2023-04-02T10:45:20.303Z,14.70
2023-04-02T10:47:46.794Z,14.70
2023-04-02T10:50:13.289Z,14.70
2023-04-02T10:52:39.753Z,14.70
2023-04-02T10:55:06.226Z,14.70
2023-04-02T10:57:32.707Z,14.70
2023-04-02T10:59:59.239Z,14.70
2023-04-02T11:02:25.783Z,14.70
2023-04-02T11:04:52.354Z,14.60
2023-04-02T11:07:18.902Z,14.60
2023-04-02T11:09:45.375Z,14.60
2023-04-02T11:12:11.833Z,14.60
2023-04-02T11:14:38.311Z,14.60
2023-04-02T11:17:04.811Z,14.60
2023-04-02T11:19:31.316Z,14.60
2023-04-02T11:21:59.506Z,14.60
2023-04-02T11:24:26.917Z,14.60
2023-04-02T11:26:53.375Z,14.60
2023-04-02T11:29:20.282Z,14.50
2023-04-02T11:31:46.934Z,14.50
2023-04-02T11:34:13.543Z,14.50
2023-04-02T11:36:40.019Z,14.50
2023-04-02T11:39:16.604Z,14.50
2023-04-02T11:41:44.098Z,14.50
2023-04-02T11:44:10.590Z,14.50
2023-04-02T11:46:37.104Z,14.50
2023-04-02T11:49:03.617Z,14.40
2023-04-02T11:51:30.235Z,14.60
2023-04-02T11:53:56.812Z,14.60
2023-04-02T11:56:23.296Z,14.60
2023-04-02T11:58:49.941Z,14.50
2023-04-02T12:01:16.416Z,14.40
2023-04-02T12:03:42.884Z,14.40
2023-04-02T12:06:09.387Z,14.40
2023-04-02T12:08:44.262Z,14.50
2023-04-02T12:11:17.306Z,14.40
2023-04-02T12:13:43.779Z,14.50
2023-04-02T12:16:10.270Z,14.40
2023-04-02T12:18:38.286Z,14.40
2023-04-02T12:21:04.770Z,14.30
2023-04-02T12:23:31.268Z,14.30
2023-04-02T12:25:57.766Z,14.40
2023-04-02T12:28:24.228Z,14.40
2023-04-02T12:30:50.724Z,14.40
2023-04-02T12:33:17.203Z,14.40
2023-04-02T12:35:43.696Z,14.40
2023-04-02T12:38:10.185Z,14.40
2023-04-02T12:40:36.898Z,14.50
2023-04-02T12:43:03.601Z,14.40
2023-04-02T12:45:30.126Z,14.40
2023-04-02T12:47:56.661Z,14.40
2023-04-02T12:50:23.178Z,14.40
2023-04-02T12:52:49.722Z,14.30
2023-04-02T12:55:16.186Z,14.40
2023-04-02T12:57:42.841Z,14.40
2023-04-02T13:00:09.449Z,14.40
2023-04-02T13:02:35.946Z,14.40
2023-04-02T13:05:02.432Z,14.40
2023-04-02T13:07:28.917Z,14.50
2023-04-02T13:09:55.396Z,14.40
2023-04-02T13:12:21.858Z,14.40
2023-04-02T13:14:48.320Z,14.50
2023-04-02T13:17:14.805Z,14.40
2023-04-02T13:19:41.285Z,14.50
2023-04-02T13:22:07.761Z,14.50
2023-04-02T13:24:38.411Z,14.40
2023-04-02T13:27:04.909Z,14.50
2023-04-02T13:29:31.380Z,14.40
2023-04-02T13:31:57.995Z,14.40
2023-04-02T13:34:24.547Z,14.40
2023-04-02T13:36:51.032Z,14.50
2023-04-02T13:39:17.501Z,14.50
2023-04-02T13:41:43.990Z,14.40
2023-04-02T13:44:10.457Z,14.40
2023-04-02T13:46:36.960Z,14.40
2023-04-02T13:49:03.464Z,14.30
2023-04-02T13:51:29.979Z,14.40
2023-04-02T13:53:56.454Z,14.40
2023-04-02T13:56:22.956Z,14.40
2023-04-02T13:58:49.434Z,14.50
2023-04-02T14:01:15.979Z,14.50
2023-04-02T14:03:42.472Z,14.40
2023-04-02T14:06:08.999Z,14.40
2023-04-02T14:08:38.386Z,14.40
2023-04-02T14:11:04.865Z,14.40
2023-04-02T14:13:31.330Z,14.40
2023-04-02T14:15:57.824Z,14.40
2023-04-02T14:18:24.301Z,14.40
2023-04-02T14:20:51.643Z,14.50
2023-04-02T14:23:18.184Z,14.50
2023-04-02T14:25:44.653Z,14.50
2023-04-02T14:28:11.113Z,14.40
2023-04-02T14:30:38.087Z,14.30
2023-04-02T14:33:04.863Z,14.40
2023-04-02T14:35:31.357Z,14.30
2023-04-02T14:37:57.825Z,14.30
2023-04-02T14:40:24.299Z,14.30
2023-04-02T14:42:50.773Z,14.30
2023-04-02T14:45:17.269Z,14.30
2023-04-02T14:47:43.794Z,14.30
2023-04-02T14:50:10.277Z,14.30
2023-04-02T14:52:36.754Z,14.30
2023-04-02T14:55:03.286Z,14.30
2023-04-02T14:57:32.992Z,14.30
2023-04-02T14:59:59.577Z,14.30
2023-04-02T15:02:26.094Z,14.30
2023-04-02T15:04:52.649Z,14.40
2023-04-02T15:07:19.281Z,14.40
2023-04-02T15:09:45.872Z,14.50
2023-04-02T15:12:12.346Z,14.50
2023-04-02T15:14:38.842Z,14.60
2023-04-02T15:17:05.356Z,14.60
2023-04-02T15:19:31.881Z,14.60
2023-04-02T15:22:00.536Z,14.60
2023-04-02T15:24:29.331Z,14.60
2023-04-02T15:26:55.815Z,14.70
2023-04-02T15:29:28.699Z,14.70
2023-04-02T15:31:56.052Z,14.70
2023-04-02T15:34:22.570Z,14.80
2023-04-02T15:36:49.052Z,14.70
2023-04-02T15:39:15.504Z,14.60
2023-04-02T15:41:42.023Z,14.50
2023-04-02T15:44:08.517Z,14.50
2023-04-02T15:46:34.994Z,14.50
2023-04-02T15:49:01.469Z,14.50
2023-04-02T15:51:27.990Z,14.50
2023-04-02T15:53:54.458Z,14.50
2023-04-02T15:56:26.741Z,14.40
2023-04-02T15:58:53.215Z,14.40
2023-04-02T16:01:19.723Z,14.40
2023-04-02T16:03:50.561Z,14.40
2023-04-02T16:06:17.145Z,14.40
2023-04-02T16:08:43.697Z,14.40
2023-04-02T16:11:10.164Z,14.40
2023-04-02T16:13:36.640Z,14.30
2023-04-02T16:16:03.154Z,14.40
2023-04-02T16:18:29.685Z,14.40
2023-04-02T16:20:56.151Z,14.30
2023-04-02T16:23:22.653Z,14.30
2023-04-02T16:25:49.130Z,14.30
2023-04-02T16:28:15.623Z,14.40
2023-04-02T16:30:42.107Z,14.40
2023-04-02T16:33:08.612Z,14.40
2023-04-02T16:35:43.032Z,14.30
2023-04-02T16:38:10.153Z,14.30
2023-04-02T16:40:36.904Z,14.30
2023-04-02T16:43:03.557Z,14.30
2023-04-02T16:45:30.042Z,14.30
2023-04-02T16:47:56.640Z,14.20
2023-04-02T16:50:23.166Z,14.30
2023-04-02T16:52:49.629Z,14.20
2023-04-02T16:55:16.141Z,14.30
2023-04-02T16:57:42.639Z,14.30
2023-04-02T17:00:09.128Z,14.30
2023-04-02T17:02:35.721Z,14.30
2023-04-02T17:05:02.224Z,14.20
2023-04-02T17:07:28.684Z,14.20
2023-04-02T17:09:55.196Z,14.20
2023-04-02T17:12:21.667Z,14.30
2023-04-02T17:14:48.131Z,14.20
2023-04-02T17:17:14.606Z,14.30
2023-04-02T17:19:41.088Z,14.20
2023-04-02T17:22:07.562Z,14.20
2023-04-02T17:24:34.037Z,14.30
2023-04-02T17:27:00.510Z,14.20
2023-04-02T17:29:26.996Z,14.20
2023-04-02T17:31:53.558Z,14.20
2023-04-02T17:34:20.119Z,14.10
2023-04-02T17:36:46.581Z,14.20
2023-04-02T17:39:13.069Z,14.20
2023-04-02T17:41:39.526Z,14.10
2023-04-02T17:44:06.026Z,14.20
2023-04-02T17:46:32.479Z,14.30
2023-04-02T17:48:58.972Z,14.20
2023-04-02T17:51:26.490Z,14.20
2023-04-02T17:53:53.344Z,14.20
2023-04-02T17:56:19.813Z,14.20
2023-04-02T17:58:46.311Z,14.20
2023-04-02T18:01:12.827Z,14.10
2023-04-02T18:03:39.424Z,14.10
2023-04-02T18:06:05.989Z,14.10
2023-04-02T18:08:32.506Z,14.20
2023-04-02T18:10:58.988Z,14.10
2023-04-02T18:13:25.466Z,14.10
2023-04-02T18:15:51.946Z,14.10
2023-04-02T18:18:18.430Z,14.10
2023-04-02T18:20:44.897Z,14.10
2023-04-02T18:23:11.357Z,14.10
2023-04-02T18:25:37.837Z,14.10
2023-04-02T18:28:04.316Z,14.10
2023-04-02T18:30:30.775Z,14.10
2023-04-02T18:32:57.293Z,14.10
2023-04-02T18:35:23.810Z,14.10
2023-04-02T18:37:50.275Z,14.10
2023-04-02T18:40:16.791Z,14.10
2023-04-02T18:42:43.277Z,14.00
2023-04-02T18:45:09.760Z,14.00
2023-04-02T18:47:36.322Z,14.00
2023-04-02T18:50:02.849Z,14.00
2023-04-02T18:52:29.330Z,14.00
2023-04-02T18:54:55.822Z,14.00
2023-04-02T18:57:22.345Z,14.10
2023-04-02T18:59:48.882Z,14.00
2023-04-02T19:02:15.380Z,14.00
2023-04-02T19:04:41.875Z,14.00
2023-04-02T19:07:08.355Z,14.00
2023-04-02T19:09:34.827Z,14.00
2023-04-02T19:12:01.330Z,14.00
2023-04-02T19:14:27.805Z,14.00
2023-04-02T19:16:54.283Z,14.00
2023-04-02T19:19:20.731Z,14.00
2023-04-02T19:21:47.211Z,14.00
2023-04-02T19:24:13.672Z,14.00
2023-04-02T19:26:40.144Z,14.00
2023-04-02T19:29:06.668Z,14.00
2023-04-02T19:31:33.144Z,14.00
2023-04-02T19:33:59.646Z,14.00
2023-04-02T19:36:26.152Z,14.00
2023-04-02T19:38:52.694Z,14.00
2023-04-02T19:41:19.224Z,13.90
2023-04-02T19:43:45.775Z,14.00
2023-04-02T19:46:12.294Z,14.00
2023-04-02T19:48:38.795Z,14.00
2023-04-02T19:51:05.282Z,14.00
2023-04-02T19:53:31.756Z,14.00
2023-04-02T19:55:58.241Z,14.00
2023-04-02T19:58:24.735Z,13.90
2023-04-02T20:00:51.243Z,13.90
2023-04-02T20:03:17.767Z,13.90
2023-04-02T20:05:44.266Z,13.90
2023-04-02T20:08:10.729Z,13.90
2023-04-02T20:10:37.469Z,13.90
2023-04-02T20:13:04.199Z,13.90
2023-04-02T20:15:30.695Z,13.90
2023-04-02T20:17:57.195Z,13.90
2023-04-02T20:20:23.699Z,13.90
2023-04-02T20:22:50.165Z,13.90
2023-04-02T20:25:16.617Z,13.90
2023-04-02T20:27:43.097Z,13.90
2023-04-02T20:30:09.546Z,13.90
2023-04-02T20:32:37.841Z,14.00
2023-04-02T20:35:04.610Z,13.90
2023-04-02T20:37:31.184Z,13.90
2023-04-02T20:39:57.677Z,14.00
2023-04-02T20:42:24.161Z,13.90
2023-04-02T20:44:50.637Z,13.90
2023-04-02T20:47:17.102Z,13.90
2023-04-02T20:49:43.567Z,13.90
2023-04-02T20:52:10.073Z,13.90
2023-04-02T20:54:36.553Z,13.90
2023-04-02T20:57:03.054Z,13.90
2023-04-02T20:59:29.544Z,13.90
2023-04-02T21:01:56.156Z,14.00
2023-04-02T21:04:22.789Z,13.90
2023-04-02T21:06:49.296Z,13.90
2023-04-02T21:09:15.757Z,13.90
2023-04-02T21:11:42.235Z,13.90
2023-04-02T21:14:08.715Z,13.90
2023-04-02T21:16:35.328Z,13.90
2023-04-02T21:19:01.889Z,13.90
2023-04-02T21:21:28.366Z,13.90
2023-04-02T21:23:54.840Z,13.90
2023-04-02T21:26:21.359Z,14.00
2023-04-02T21:28:47.831Z,13.90
2023-04-02T21:31:14.372Z,14.00
2023-04-02T21:33:40.958Z,13.90
2023-04-02T21:36:07.480Z,13.90
2023-04-02T21:38:33.971Z,13.90
2023-04-02T21:41:00.471Z,13.90
2023-04-02T21:43:26.892Z,13.90
2023-04-02T21:45:53.392Z,13.90
2023-04-02T21:48:19.849Z,13.90
2023-04-02T21:50:46.341Z,13.90
2023-04-02T21:53:12.810Z,13.90
2023-04-02T21:55:39.298Z,13.90
2023-04-02T21:58:05.769Z,13.80
2023-04-02T22:00:32.243Z,13.80
2023-04-02T22:02:58.774Z,13.80
2023-04-02T22:05:25.321Z,13.80
2023-04-02T22:07:51.793Z,13.80
2023-04-02T22:10:18.258Z,13.80
2023-04-02T22:12:44.722Z,13.80
2023-04-02T22:15:11.204Z,13.80
2023-04-02T22:17:37.706Z,13.80
2023-04-02T22:20:04.212Z,13.80
2023-04-02T22:22:30.696Z,13.70
2023-04-02T22:24:57.142Z,13.80
2023-04-02T22:27:23.597Z,13.80
2023-04-02T22:29:50.052Z,13.70
2023-04-02T22:32:16.541Z,13.70
2023-04-02T22:34:43.018Z,13.70
2023-04-02T22:37:09.494Z,13.70
2023-04-02T22:39:35.968Z,13.70
2023-04-02T22:42:02.456Z,13.70
2023-04-02T22:44:28.936Z,13.70
2023-04-02T22:46:55.406Z,13.70
2023-04-02T22:49:21.888Z,13.70
2023-04-02T22:51:48.362Z,13.70
2023-04-02T22:54:14.843Z,13.60
2023-04-02T22:56:41.319Z,13.70
2023-04-02T22:59:07.778Z,13.70
2023-04-02T23:01:34.295Z,13.70
2023-04-02T23:04:00.772Z,13.70
2023-04-02T23:06:27.249Z,13.70
2023-04-02T23:08:53.765Z,13.70
2023-04-02T23:11:20.252Z,13.70
2023-04-02T23:13:46.722Z,13.70
2023-04-02T23:16:13.298Z,13.70
2023-04-02T23:18:39.829Z,13.60
2023-04-02T23:21:06.328Z,13.60
2023-04-02T23:23:32.797Z,13.60
2023-04-02T23:25:59.308Z,13.60
2023-04-02T23:28:25.757Z,13.60
2023-04-02T23:30:52.224Z,13.60
2023-04-02T23:33:18.709Z,13.60
2023-04-02T23:35:45.204Z,13.70
2023-04-02T23:38:11.734Z,13.70
2023-04-02T23:40:38.278Z,13.70
2023-04-02T23:43:04.744Z,13.60
2023-04-02T23:45:31.237Z,13.60
2023-04-02T23:47:57.747Z,13.60
2023-04-02T23:50:24.243Z,13.60
2023-04-02T23:52:50.715Z,13.60
2023-04-02T23:55:17.171Z,13.60
2023-04-02T23:57:43.647Z,13.50
